Time,TemperatureF,DewpointF,PressureIn,WindDirection,WindDirectionDegrees,WindSpeedMPH,WindSpeedGustMPH,Humidity,HourlyPrecipIn,Conditions,Clouds,dailyrainin,SoftwareType,DateUTC
2013-02-12 00:00:00,25.3,23.3,29.62,NE,52,0.0,0.0,92,0.00,OVC,,0.00,WeatherDisplay:10.37,2013-02-12 05:00:00,
2013-02-12 00:01:00,25.3,24.1,29.61,NE,52,0.0,0.0,95,0.00,OVC,,0.00,WeatherDisplay:10.37,2013-02-12 05:01:00,
2013-02-12 00:06:00,25.4,24.2,29.61,NE,52,0.0,0.0,95,0.00,OVC,,0.00,WeatherDisplay:10.37,2013-02-12 05:06:00,
2013-02-12 00:11:00,25.4,24.2,29.61,NE,52,0.0,0.0,95,0.00,OVC,,0.00,WeatherDisplay:10.37,2013-02-12 05:11:00,
2013-02-12 00:16:00,25.4,24.2,29.61,NE,52,0.0,0.0,95,0.00,OVC,,0.00,WeatherDisplay:10.37,2013-02-12 05:16:00,
2013-02-12 00:21:00,25.4,24.2,29.61,NE,52,0.0,0.0,95,0.00,OVC,,0.00,WeatherDisplay:10.37,2013-02-12 05:21:00,
2013-02-12 00:26:00,25.8,24.6,29.61,NE,52,0.0,0.0,95,0.00,OVC,,0.00,WeatherDisplay:10.37,2013-02-12 05:26:00,
2013-02-12 00:31:00,26.0,24.8,29.61,NE,52,0.0,0.0,95,0.00,OVC,,0.00,WeatherDisplay:10.37,2013-02-12 05:31:00,
2013-02-12 00:36:00,25.8,24.6,29.61,NE,52,0.0,0.0,95,0.00,OVC,,0.00,WeatherDisplay:10.37,2013-02-12 05:36:00,
2013-02-12 00:41:00,25.4,24.2,29.61,NE,52,0.0,0.0,95,0.00,OVC,,0.00,WeatherDisplay:10.37,2013-02-12 05:41:00,
2013-02-12 00:46:00,25.5,24.3,29.61,NE,52,0.0,0.0,95,0.00,OVC,,0.00,WeatherDisplay:10.37,2013-02-12 05:46:00,
2013-02-12 00:51:00,25.4,24.2,29.61,NE,52,0.0,0.0,95,0.00,OVC,,0.00,WeatherDisplay:10.37,2013-02-12 05:51:00,
2013-02-12 00:56:00,25.0,23.8,29.61,NE,52,0.0,0.0,95,0.00,OVC,,0.00,WeatherDisplay:10.37,2013-02-12 05:56:00,
2013-02-12 01:01:00,25.3,24.3,29.58,NE,52,0.0,0.0,96,0.00,OVC,,0.00,WeatherDisplay:10.37,2013-02-12 06:01:00,
2013-02-12 01:06:00,25.9,24.9,29.58,NE,52,0.0,0.0,96,0.00,OVC,,0.00,WeatherDisplay:10.37,2013-02-12 06:06:00,
2013-02-12 01:11:00,27.8,26.8,29.58,NE,52,0.0,0.0,96,0.00,OVC,,0.00,WeatherDisplay:10.37,2013-02-12 06:11:00,
2013-02-12 01:16:00,28.0,27.0,29.58,NE,52,0.0,0.0,96,0.00,OVC,,0.00,WeatherDisplay:10.37,2013-02-12 06:16:00,
2013-02-12 01:21:00,28.4,27.4,29.58,NE,52,0.0,0.0,96,0.00,OVC,,0.00,WeatherDisplay:10.37,2013-02-12 06:21:00,
2013-02-12 01:26:00,26.7,25.7,29.58,NE,52,0.0,0.0,96,0.00,OVC,,0.00,WeatherDisplay:10.37,2013-02-12 06:26:00,
2013-02-12 01:31:00,27.8,26.8,29.58,NE,52,0.0,0.0,96,0.00,OVC,,0.00,WeatherDisplay:10.37,2013-02-12 06:31:00,
2013-02-12 01:36:00,25.6,24.6,29.58,NE,52,0.0,0.0,96,0.00,OVC,,0.00,WeatherDisplay:10.37,2013-02-12 06:36:00,
2013-02-12 01:41:00,27.1,26.1,29.58,NE,52,0.0,0.0,96,0.00,OVC,,0.00,WeatherDisplay:10.37,2013-02-12 06:41:00,
2013-02-12 01:46:00,29.2,28.2,29.58,NE,52,0.0,0.0,96,0.00,OVC,,0.00,WeatherDisplay:10.37,2013-02-12 06:46:00,
2013-02-12 01:51:00,29.8,28.8,29.58,NE,51,0.0,0.0,96,0.00,OVC,,0.00,WeatherDisplay:10.37,2013-02-12 06:51:00,
2013-02-12 01:56:00,30.0,29.0,29.58,NE,51,1.1,0.0,96,0.00,OVC,,0.00,WeatherDisplay:10.37,2013-02-12 06:56:00,
2013-02-12 02:01:00,29.4,29.4,29.59,NE,51,0.0,0.0,100,0.00,SCT,,0.00,WeatherDisplay:10.37,2013-02-12 07:01:00,
2013-02-12 02:06:00,29.7,29.7,29.59,NE,51,0.0,0.0,100,0.00,SCT,,0.00,WeatherDisplay:10.37,2013-02-12 07:06:00,
2013-02-12 02:11:00,30.1,30.1,29.59,NE,49,0.0,0.0,100,0.00,SCT,,0.00,WeatherDisplay:10.37,2013-02-12 07:11:00,
2013-02-12 02:16:00,30.0,30.0,29.59,NE,49,0.0,0.0,100,0.00,SCT,,0.00,WeatherDisplay:10.37,2013-02-12 07:16:00,
2013-02-12 02:21:00,28.9,28.9,29.59,NE,49,0.0,0.0,100,0.00,SCT,,0.00,WeatherDisplay:10.37,2013-02-12 07:21:00,
2013-02-12 02:26:00,28.7,28.7,29.59,NE,49,0.0,0.0,100,0.00,SCT,,0.00,WeatherDisplay:10.37,2013-02-12 07:26:00,
2013-02-12 02:31:00,28.6,28.6,29.59,NE,49,0.0,0.0,100,0.00,SCT,,0.00,WeatherDisplay:10.37,2013-02-12 07:31:00,
2013-02-12 02:36:00,28.4,28.4,29.59,NE,49,0.0,0.0,100,0.00,SCT,,0.00,WeatherDisplay:10.37,2013-02-12 07:36:00,
2013-02-12 02:41:00,27.4,27.4,29.59,NE,49,0.0,0.0,100,0.00,SCT,,0.00,WeatherDisplay:10.37,2013-02-12 07:41:00,
2013-02-12 02:46:00,27.0,27.0,29.59,NE,49,0.0,0.0,100,0.00,SCT,,0.00,WeatherDisplay:10.37,2013-02-12 07:46:00,
2013-02-12 02:51:00,27.2,27.2,29.59,NE,49,0.0,0.0,100,0.00,SCT,,0.00,WeatherDisplay:10.37,2013-02-12 07:51:00,
2013-02-12 02:56:00,27.4,27.4,29.59,NE,49,0.0,0.0,100,0.00,SCT,,0.00,WeatherDisplay:10.37,2013-02-12 07:56:00,
2013-02-12 03:01:00,27.8,27.8,29.59,NE,49,0.0,0.0,100,0.00,SCT,,0.00,WeatherDisplay:10.37,2013-02-12 08:01:00,
2013-02-12 03:06:00,27.1,27.1,29.59,NE,49,0.0,0.0,100,0.00,SCT,,0.00,WeatherDisplay:10.37,2013-02-12 08:06:00,
2013-02-12 03:11:00,27.4,24.3,29.59,NE,49,0.0,0.0,88,0.00,BKN,,0.00,WeatherDisplay:10.37,2013-02-12 08:11:00,
2013-02-12 03:16:00,27.8,24.7,29.59,NE,49,0.0,0.0,88,0.00,BKN,,0.00,WeatherDisplay:10.37,2013-02-12 08:16:00,
2013-02-12 03:21:00,27.8,24.7,29.59,NE,49,0.0,0.0,88,0.00,BKN,,0.00,WeatherDisplay:10.37,2013-02-12 08:21:00,
2013-02-12 03:26:00,27.4,24.3,29.59,NE,49,0.0,0.0,88,0.00,BKN,,0.00,WeatherDisplay:10.37,2013-02-12 08:26:00,
2013-02-12 03:31:00,26.1,23.0,29.59,NE,49,0.0,0.0,88,0.00,BKN,,0.00,WeatherDisplay:10.37,2013-02-12 08:31:00,
2013-02-12 03:36:00,27.1,24.0,29.59,NE,49,0.0,0.0,88,0.00,BKN,,0.00,WeatherDisplay:10.37,2013-02-12 08:36:00,
2013-02-12 03:41:00,27.8,24.7,29.59,NE,49,0.0,0.0,88,0.00,BKN,,0.00,WeatherDisplay:10.37,2013-02-12 08:41:00,
2013-02-12 03:46:00,28.0,24.9,29.59,NE,49,0.0,0.0,88,0.00,BKN,,0.00,WeatherDisplay:10.37,2013-02-12 08:46:00,
2013-02-12 03:51:00,27.7,24.6,29.59,NE,49,0.0,0.0,88,0.00,BKN,,0.00,WeatherDisplay:10.37,2013-02-12 08:51:00,
2013-02-12 03:56:00,28.3,25.2,29.59,NE,49,1.1,1.1,88,0.00,BKN,,0.00,WeatherDisplay:10.37,2013-02-12 08:56:00,
2013-02-12 04:01:00,28.4,25.3,29.59,NE,49,0.0,0.0,88,0.00,BKN,,0.00,WeatherDisplay:10.37,2013-02-12 09:01:00,
2013-02-12 04:06:00,27.4,24.3,29.59,NE,49,0.0,0.0,88,0.00,BKN,,0.00,WeatherDisplay:10.37,2013-02-12 09:06:00,
2013-02-12 04:11:00,28.0,26.8,29.59,NE,49,0.0,0.0,95,0.00,OVC,,0.00,WeatherDisplay:10.37,2013-02-12 09:11:00,
2013-02-12 04:16:00,28.3,27.1,29.59,NE,49,0.0,0.0,95,0.00,OVC,,0.00,WeatherDisplay:10.37,2013-02-12 09:16:00,
2013-02-12 04:21:00,27.9,26.7,29.59,NE,49,0.0,0.0,95,0.00,OVC,,0.00,WeatherDisplay:10.37,2013-02-12 09:21:00,
2013-02-12 04:26:00,27.5,26.3,29.59,NE,49,0.0,0.0,95,0.00,OVC,,0.00,WeatherDisplay:10.37,2013-02-12 09:26:00,
2013-02-12 04:31:00,28.1,26.9,29.59,NE,49,0.0,0.0,95,0.00,OVC,,0.00,WeatherDisplay:10.37,2013-02-12 09:31:00,
2013-02-12 04:36:00,27.9,26.7,29.59,NE,49,0.0,0.0,95,0.00,OVC,,0.00,WeatherDisplay:10.37,2013-02-12 09:36:00,
2013-02-12 04:41:00,27.5,26.3,29.59,NE,49,0.0,0.0,95,0.00,OVC,,0.00,WeatherDisplay:10.37,2013-02-12 09:41:00,
2013-02-12 04:46:00,27.4,26.2,29.59,NE,49,0.0,0.0,95,0.00,OVC,,0.00,WeatherDisplay:10.37,2013-02-12 09:46:00,
2013-02-12 04:51:00,27.0,25.8,29.59,NE,49,0.0,0.0,95,0.00,OVC,,0.00,WeatherDisplay:10.37,2013-02-12 09:51:00,
2013-02-12 04:56:00,27.3,26.1,29.59,NE,49,0.0,0.0,95,0.00,OVC,,0.00,WeatherDisplay:10.37,2013-02-12 09:56:00,
2013-02-12 05:01:00,26.9,25.7,29.59,NE,49,0.0,0.0,95,0.00,OVC,,0.00,WeatherDisplay:10.37,2013-02-12 10:01:00,
2013-02-12 05:06:00,26.9,25.7,29.59,NE,49,0.0,0.0,95,0.00,OVC,,0.00,WeatherDisplay:10.37,2013-02-12 10:06:00,
2013-02-12 05:11:00,26.8,25.8,29.60,NE,49,0.0,0.0,96,0.00,FEW,,0.00,WeatherDisplay:10.37,2013-02-12 10:11:00,
2013-02-12 05:16:00,26.8,25.8,29.60,NE,49,0.0,0.0,96,0.00,FEW,,0.00,WeatherDisplay:10.37,2013-02-12 10:16:00,
2013-02-12 05:21:00,26.4,25.4,29.60,NE,49,0.0,0.0,96,0.00,FEW,,0.00,WeatherDisplay:10.37,2013-02-12 10:21:00,
2013-02-12 05:26:00,26.0,25.0,29.60,NE,49,0.0,0.0,96,0.00,FEW,,0.00,WeatherDisplay:10.37,2013-02-12 10:26:00,
2013-02-12 05:31:00,25.8,24.8,29.60,NE,49,0.0,0.0,96,0.00,FEW,,0.00,WeatherDisplay:10.37,2013-02-12 10:31:00,
2013-02-12 05:36:00,26.3,25.3,29.60,NE,49,0.0,0.0,96,0.00,FEW,,0.00,WeatherDisplay:10.37,2013-02-12 10:36:00,
2013-02-12 05:41:00,26.6,25.6,29.60,NE,49,0.0,0.0,96,0.00,FEW,,0.00,WeatherDisplay:10.37,2013-02-12 10:41:00,
2013-02-12 05:46:00,26.8,25.8,29.60,NE,49,0.0,0.0,96,0.00,FEW,,0.00,WeatherDisplay:10.37,2013-02-12 10:46:00,
2013-02-12 05:51:00,26.5,25.5,29.60,NE,49,0.0,0.0,96,0.00,FEW,,0.00,WeatherDisplay:10.37,2013-02-12 10:51:00,
2013-02-12 05:56:00,27.0,26.0,29.60,NE,49,0.0,0.0,96,0.00,FEW,,0.00,WeatherDisplay:10.37,2013-02-12 10:56:00,
2013-02-12 06:01:00,26.1,25.1,29.60,NE,49,0.0,0.0,96,0.00,FEW,,0.00,WeatherDisplay:10.37,2013-02-12 11:01:00,
2013-02-12 06:06:00,26.7,25.7,29.60,NE,49,0.0,0.0,96,0.00,FEW,,0.00,WeatherDisplay:10.37,2013-02-12 11:06:00,
2013-02-12 06:11:00,26.7,22.5,29.61,NE,49,0.0,0.0,84,0.00,OVC,,0.00,WeatherDisplay:10.37,2013-02-12 11:11:00,
2013-02-12 06:16:00,26.9,22.7,29.61,NE,49,0.0,0.0,84,0.00,OVC,,0.00,WeatherDisplay:10.37,2013-02-12 11:16:00,
2013-02-12 06:21:00,26.7,22.5,29.61,NE,49,0.0,0.0,84,0.00,OVC,,0.00,WeatherDisplay:10.37,2013-02-12 11:21:00,
2013-02-12 06:26:00,27.4,23.2,29.61,NE,49,0.0,0.0,84,0.00,OVC,,0.00,WeatherDisplay:10.37,2013-02-12 11:26:00,
2013-02-12 06:31:00,27.1,22.9,29.61,NE,49,0.0,0.0,84,0.00,OVC,,0.00,WeatherDisplay:10.37,2013-02-12 11:31:00,
2013-02-12 06:36:00,27.4,23.2,29.61,NE,49,0.0,0.0,84,0.00,OVC,,0.00,WeatherDisplay:10.37,2013-02-12 11:36:00,
2013-02-12 06:41:00,27.0,22.8,29.61,NE,49,0.0,0.0,84,0.00,OVC,,0.00,WeatherDisplay:10.37,2013-02-12 11:41:00,
2013-02-12 06:46:00,27.1,22.9,29.61,NE,49,0.0,0.0,84,0.00,OVC,,0.00,WeatherDisplay:10.37,2013-02-12 11:46:00,
2013-02-12 06:51:00,27.5,23.3,29.61,NE,49,0.0,0.0,84,0.00,OVC,,0.00,WeatherDisplay:10.37,2013-02-12 11:51:00,
2013-02-12 06:56:00,27.6,23.4,29.61,NE,49,0.0,0.0,84,0.00,OVC,,0.00,WeatherDisplay:10.37,2013-02-12 11:56:00,
2013-02-12 07:01:00,27.8,23.6,29.61,NE,49,0.0,0.0,84,0.00,OVC,,0.00,WeatherDisplay:10.37,2013-02-12 12:01:00,
2013-02-12 07:06:00,27.9,23.7,29.61,NE,49,0.0,0.0,84,0.00,OVC,,0.00,WeatherDisplay:10.37,2013-02-12 12:06:00,
2013-02-12 07:11:00,28.5,23.4,29.62,NE,49,0.0,0.0,81,0.00,OVC,,0.00,WeatherDisplay:10.37,2013-02-12 12:11:00,
2013-02-12 07:16:00,28.4,23.3,29.62,NE,49,0.0,0.0,81,0.00,OVC,,0.00,WeatherDisplay:10.37,2013-02-12 12:16:00,
2013-02-12 07:21:00,28.8,23.7,29.62,NE,49,0.0,0.0,81,0.00,OVC,,0.00,WeatherDisplay:10.37,2013-02-12 12:21:00,
2013-02-12 07:26:00,29.2,24.1,29.62,NE,49,0.0,0.0,81,0.00,OVC,,0.00,WeatherDisplay:10.37,2013-02-12 12:26:00,
2013-02-12 07:31:00,29.0,23.9,29.62,NE,49,0.0,0.0,81,0.00,OVC,,0.00,WeatherDisplay:10.37,2013-02-12 12:31:00,
2013-02-12 07:36:00,28.7,23.6,29.62,NE,49,0.0,0.0,81,0.00,OVC,,0.00,WeatherDisplay:10.37,2013-02-12 12:36:00,
2013-02-12 07:41:00,29.3,24.2,29.62,NE,49,0.0,0.0,81,0.00,OVC,,0.00,WeatherDisplay:10.37,2013-02-12 12:41:00,
2013-02-12 07:46:00,29.6,24.5,29.62,NE,49,0.0,0.0,81,0.00,OVC,,0.00,WeatherDisplay:10.37,2013-02-12 12:46:00,
2013-02-12 07:51:00,30.0,24.9,29.62,NE,49,0.0,0.0,81,0.00,OVC,,0.00,WeatherDisplay:10.37,2013-02-12 12:51:00,
2013-02-12 07:56:00,30.5,25.4,29.62,NE,49,0.0,0.0,81,0.00,OVC,,0.00,WeatherDisplay:10.37,2013-02-12 12:56:00,
2013-02-12 08:01:00,30.4,25.3,29.62,NE,49,0.0,0.0,81,0.00,OVC,,0.00,WeatherDisplay:10.37,2013-02-12 13:01:00,
2013-02-12 08:06:00,30.6,25.5,29.62,NE,49,0.0,0.0,81,0.00,OVC,,0.00,WeatherDisplay:10.37,2013-02-12 13:06:00,
2013-02-12 08:11:00,31.0,24.9,29.61,NE,49,0.0,0.0,78,0.00,SCT,,0.00,WeatherDisplay:10.37,2013-02-12 13:11:00,
2013-02-12 08:16:00,31.4,25.3,29.61,NE,49,1.1,0.0,78,0.00,SCT,,0.00,WeatherDisplay:10.37,2013-02-12 13:16:00,
2013-02-12 08:21:00,31.7,25.6,29.61,NE,49,0.0,0.0,78,0.00,SCT,,0.00,WeatherDisplay:10.37,2013-02-12 13:21:00,
2013-02-12 08:26:00,32.1,26.0,29.61,NE,49,0.0,0.0,78,0.00,SCT,,0.00,WeatherDisplay:10.37,2013-02-12 13:26:00,
2013-02-12 08:31:00,32.6,26.5,29.61,NE,49,2.3,0.0,78,0.00,SCT,,0.00,WeatherDisplay:10.37,2013-02-12 13:31:00,
2013-02-12 08:36:00,32.6,26.5,29.61,NE,49,1.1,0.0,78,0.00,SCT,,0.00,WeatherDisplay:10.37,2013-02-12 13:36:00,
2013-02-12 08:41:00,33.0,26.9,29.61,NE,49,0.0,0.0,78,0.00,SCT,,0.00,WeatherDisplay:10.37,2013-02-12 13:41:00,
2013-02-12 08:46:00,33.1,27.0,29.61,NE,49,0.0,0.0,78,0.00,SCT,,0.00,WeatherDisplay:10.37,2013-02-12 13:46:00,
2013-02-12 08:51:00,33.5,27.4,29.61,NE,49,0.0,0.0,78,0.00,SCT,,0.00,WeatherDisplay:10.37,2013-02-12 13:51:00,
2013-02-12 08:56:00,33.7,27.6,29.61,NE,49,0.0,0.0,78,0.00,SCT,,0.00,WeatherDisplay:10.37,2013-02-12 13:56:00,
2013-02-12 09:01:00,34.3,28.2,29.61,SW,215,1.1,0.0,78,0.00,SCT,,0.00,WeatherDisplay:10.37,2013-02-12 14:01:00,
2013-02-12 09:06:00,34.9,28.7,29.61,SW,234,1.1,1.1,78,0.00,SCT,,0.00,WeatherDisplay:10.37,2013-02-12 14:06:00,
2013-02-12 09:11:00,35.1,27.0,29.62,SW,236,1.1,1.1,72,0.00,CLR,,0.00,WeatherDisplay:10.37,2013-02-12 14:11:00,
2013-02-12 09:16:00,35.5,27.4,29.62,WSW,238,1.1,1.1,72,0.00,CLR,,0.00,WeatherDisplay:10.37,2013-02-12 14:16:00,
2013-02-12 09:21:00,36.4,28.2,29.62,WSW,238,0.0,0.0,72,0.00,CLR,,0.00,WeatherDisplay:10.37,2013-02-12 14:21:00,
2013-02-12 09:26:00,36.0,27.8,29.62,SW,235,0.0,0.0,72,0.00,CLR,,0.00,WeatherDisplay:10.37,2013-02-12 14:26:00,
2013-02-12 09:31:00,36.7,28.5,29.62,NW,307,1.1,1.1,72,0.00,CLR,,0.00,WeatherDisplay:10.37,2013-02-12 14:31:00,
2013-02-12 09:36:00,36.2,28.0,29.62,NW,307,2.3,2.3,72,0.00,CLR,,0.00,WeatherDisplay:10.37,2013-02-12 14:36:00,
2013-02-12 09:41:00,36.8,28.6,29.62,NW,307,2.3,2.3,72,0.00,CLR,,0.00,WeatherDisplay:10.37,2013-02-12 14:41:00,
2013-02-12 09:46:00,38.1,29.9,29.62,West,273,4.0,4.0,72,0.00,CLR,,0.00,WeatherDisplay:10.37,2013-02-12 14:46:00,
2013-02-12 09:51:00,37.1,28.9,29.62,WNW,287,5.8,5.8,72,0.00,CLR,,0.00,WeatherDisplay:10.37,2013-02-12 14:51:00,
2013-02-12 09:56:00,38.2,30.0,29.62,WNW,283,2.3,2.3,72,0.00,CLR,,0.00,WeatherDisplay:10.37,2013-02-12 14:56:00,
2013-02-12 10:01:00,37.7,29.5,29.62,West,279,3.5,3.5,72,0.00,CLR,,0.00,WeatherDisplay:10.37,2013-02-12 15:01:00,
2013-02-12 10:06:00,37.1,28.9,29.62,WNW,294,4.0,4.0,72,0.00,CLR,,0.00,WeatherDisplay:10.37,2013-02-12 15:06:00,
2013-02-12 10:11:00,37.5,22.3,29.62,NW,310,3.0,3.0,54,0.00,CLR,,0.00,WeatherDisplay:10.37,2013-02-12 15:11:00,
2013-02-12 10:16:00,37.5,22.3,29.62,NW,304,1.1,1.1,54,0.00,CLR,,0.00,WeatherDisplay:10.37,2013-02-12 15:16:00,
2013-02-12 10:21:00,37.4,22.3,29.62,WNW,303,3.5,3.5,54,0.00,CLR,,0.00,WeatherDisplay:10.37,2013-02-12 15:21:00,
2013-02-12 10:26:00,38.1,22.9,29.62,WNW,302,5.0,5.0,54,0.00,CLR,,0.00,WeatherDisplay:10.37,2013-02-12 15:26:00,
2013-02-12 10:31:00,37.5,22.3,29.62,WNW,282,6.9,6.9,54,0.00,CLR,,0.00,WeatherDisplay:10.37,2013-02-12 15:31:00,
2013-02-12 10:36:00,37.7,22.5,29.62,WNW,282,3.5,3.5,54,0.00,CLR,,0.00,WeatherDisplay:10.37,2013-02-12 15:36:00,
2013-02-12 10:41:00,37.3,22.2,29.62,WNW,282,9.2,9.2,54,0.00,CLR,,0.00,WeatherDisplay:10.37,2013-02-12 15:41:00,
2013-02-12 10:46:00,37.4,22.3,29.62,West,272,5.8,5.8,54,0.00,CLR,,0.00,WeatherDisplay:10.37,2013-02-12 15:46:00,
2013-02-12 10:51:00,37.6,22.4,29.62,West,281,11.5,11.5,54,0.00,CLR,,0.00,WeatherDisplay:10.37,2013-02-12 15:51:00,
2013-02-12 10:56:00,38.0,22.8,29.62,NW,326,3.5,3.5,54,0.00,CLR,,0.00,WeatherDisplay:10.37,2013-02-12 15:56:00,
2013-02-12 11:01:00,38.0,22.8,29.62,WNW,290,4.0,4.0,54,0.00,CLR,,0.00,WeatherDisplay:10.37,2013-02-12 16:01:00,
2013-02-12 11:06:00,37.9,22.7,29.62,WNW,282,5.8,5.8,54,0.00,CLR,,0.00,WeatherDisplay:10.37,2013-02-12 16:06:00,
2013-02-12 11:11:00,38.0,21.0,29.62,WNW,295,7.0,7.0,50,0.00,SCT,,0.00,WeatherDisplay:10.37,2013-02-12 16:11:00,
2013-02-12 11:16:00,37.8,20.8,29.62,NW,304,11.0,11.0,50,0.00,SCT,,0.00,WeatherDisplay:10.37,2013-02-12 16:16:00,
2013-02-12 11:21:00,37.7,20.7,29.62,WNW,291,11.5,11.5,50,0.00,SCT,,0.00,WeatherDisplay:10.37,2013-02-12 16:21:00,
2013-02-12 11:26:00,37.5,20.5,29.62,NW,316,9.2,9.2,50,0.00,SCT,,0.00,WeatherDisplay:10.37,2013-02-12 16:26:00,
2013-02-12 11:31:00,37.3,20.3,29.62,WNW,301,6.9,6.9,50,0.00,SCT,,0.00,WeatherDisplay:10.37,2013-02-12 16:31:00,
2013-02-12 11:36:00,37.2,20.2,29.62,West,281,9.2,9.2,50,0.00,SCT,,0.00,WeatherDisplay:10.37,2013-02-12 16:36:00,
2013-02-12 11:41:00,38.1,21.1,29.62,West,270,6.9,6.9,50,0.00,SCT,,0.00,WeatherDisplay:10.37,2013-02-12 16:41:00,
2013-02-12 11:46:00,38.5,21.5,29.62,NW,311,15.0,15.0,50,0.00,SCT,,0.00,WeatherDisplay:10.37,2013-02-12 16:46:00,
2013-02-12 11:51:00,38.7,21.6,29.62,NW,307,6.9,6.9,50,0.00,SCT,,0.00,WeatherDisplay:10.37,2013-02-12 16:51:00,
2013-02-12 11:56:00,38.3,21.3,29.62,WNW,282,9.2,9.2,50,0.00,SCT,,0.00,WeatherDisplay:10.37,2013-02-12 16:56:00,
2013-02-12 12:01:00,39.4,22.3,29.62,WNW,301,7.0,7.0,50,0.01,SCT,,0.01,WeatherDisplay:10.37,2013-02-12 17:01:00,
2013-02-12 12:06:00,40.0,22.8,29.62,NW,317,5.8,5.8,50,0.01,SCT,,0.01,WeatherDisplay:10.37,2013-02-12 17:06:00,
2013-02-12 12:11:00,40.1,24.8,29.65,NW,319,5.8,5.8,54,0.02,OVC,,0.02,WeatherDisplay:10.37,2013-02-12 17:11:00,
2013-02-12 12:16:00,40.4,25.1,29.65,WNW,301,8.1,8.1,54,0.02,OVC,,0.02,WeatherDisplay:10.37,2013-02-12 17:16:00,
2013-02-12 12:21:00,38.8,23.6,29.65,WNW,288,12.7,12.7,54,0.02,OVC,,0.02,WeatherDisplay:10.37,2013-02-12 17:21:00,
2013-02-12 12:26:00,38.9,23.7,29.65,NW,309,10.4,10.4,54,0.03,OVC,,0.03,WeatherDisplay:10.37,2013-02-12 17:26:00,
2013-02-12 12:31:00,39.1,23.8,29.65,WNW,303,10.4,10.4,54,0.04,RA,,0.04,WeatherDisplay:10.37,2013-02-12 17:31:00,
2013-02-12 12:36:00,39.3,24.0,29.65,WNW,294,5.0,5.0,54,0.04,OVC,,0.04,WeatherDisplay:10.37,2013-02-12 17:36:00,
2013-02-12 12:41:00,39.4,24.1,29.65,NW,323,4.6,4.6,54,0.05,RA,,0.05,WeatherDisplay:10.37,2013-02-12 17:41:00,
2013-02-12 12:46:00,38.8,23.6,29.65,WNW,289,10.4,10.4,54,0.05,OVC,,0.05,WeatherDisplay:10.37,2013-02-12 17:46:00,
2013-02-12 12:51:00,38.6,23.4,29.65,WNW,294,11.0,11.0,54,0.06,RA,,0.06,WeatherDisplay:10.37,2013-02-12 17:51:00,
2013-02-12 12:56:00,38.3,23.1,29.65,West,281,10.4,10.4,54,0.06,OVC,,0.06,WeatherDisplay:10.37,2013-02-12 17:56:00,
2013-02-12 13:01:00,38.1,22.9,29.65,WNW,298,13.8,13.8,54,0.05,OVC,,0.06,WeatherDisplay:10.37,2013-02-12 18:01:00,
2013-02-12 13:06:00,38.1,22.9,29.65,West,276,7.0,7.0,54,0.06,OVC,,0.07,WeatherDisplay:10.37,2013-02-12 18:06:00,
2013-02-12 13:11:00,38.0,21.9,29.65,WNW,289,6.9,6.9,52,0.06,RA,,0.08,WeatherDisplay:10.37,2013-02-12 18:11:00,
2013-02-12 13:16:00,38.0,21.9,29.65,NW,304,5.0,5.0,52,0.06,OVC,,0.08,WeatherDisplay:10.37,2013-02-12 18:16:00,
2013-02-12 13:21:00,38.0,21.9,29.65,WNW,295,5.8,5.8,52,0.06,OVC,,0.08,WeatherDisplay:10.37,2013-02-12 18:21:00,
2013-02-12 13:26:00,37.7,21.6,29.65,WNW,294,6.9,6.9,52,0.06,OVC,,0.09,WeatherDisplay:10.37,2013-02-12 18:26:00,
2013-02-12 13:31:00,37.4,21.4,29.65,WNW,287,10.4,10.4,52,0.06,RA,,0.10,WeatherDisplay:10.37,2013-02-12 18:31:00,
2013-02-12 13:36:00,37.2,21.2,29.65,NW,304,4.0,4.0,52,0.06,OVC,,0.10,WeatherDisplay:10.37,2013-02-12 18:36:00,
2013-02-12 13:41:00,37.1,21.1,29.65,WNW,284,10.4,10.4,52,0.05,OVC,,0.10,WeatherDisplay:10.37,2013-02-12 18:41:00,
2013-02-12 13:46:00,37.0,21.0,29.65,NNW,328,4.6,4.6,52,0.06,OVC,,0.11,WeatherDisplay:10.37,2013-02-12 18:46:00,
2013-02-12 13:51:00,37.1,21.1,29.65,WNW,297,5.0,5.0,52,0.05,OVC,,0.11,WeatherDisplay:10.37,2013-02-12 18:51:00,
2013-02-12 13:56:00,37.2,21.2,29.65,NW,313,3.5,3.5,52,0.06,OVC,,0.12,WeatherDisplay:10.37,2013-02-12 18:56:00,
2013-02-12 14:01:00,37.0,21.0,29.65,NW,325,3.5,3.5,52,0.06,OVC,,0.12,WeatherDisplay:10.37,2013-02-12 19:01:00,
2013-02-12 14:06:00,36.9,20.9,29.65,NW,313,6.9,6.9,52,0.05,OVC,,0.12,WeatherDisplay:10.37,2013-02-12 19:06:00,
2013-02-12 14:11:00,36.9,20.9,29.66,WNW,284,3.5,3.5,52,0.04,OVC,,0.12,WeatherDisplay:10.37,2013-02-12 19:11:00,
2013-02-12 14:16:00,36.7,20.7,29.66,NW,313,5.0,5.0,52,0.05,OVC,,0.13,WeatherDisplay:10.37,2013-02-12 19:16:00,
2013-02-12 14:21:00,36.7,20.7,29.66,NW,307,1.1,0.0,52,0.05,OVC,,0.13,WeatherDisplay:10.37,2013-02-12 19:21:00,
2013-02-12 14:26:00,36.9,20.9,29.66,NW,307,3.5,3.5,52,0.05,RA,,0.14,WeatherDisplay:10.37,2013-02-12 19:26:00,
2013-02-12 14:31:00,36.7,20.7,29.66,WNW,297,4.6,4.6,52,0.04,OVC,,0.14,WeatherDisplay:10.37,2013-02-12 19:31:00,
2013-02-12 14:36:00,36.5,20.5,29.66,NW,310,2.3,2.3,52,0.04,OVC,,0.14,WeatherDisplay:10.37,2013-02-12 19:36:00,
2013-02-12 14:41:00,36.7,20.7,29.66,NW,315,3.5,3.5,52,0.04,OVC,,0.14,WeatherDisplay:10.37,2013-02-12 19:41:00,
2013-02-12 14:46:00,36.9,20.9,29.66,NW,316,3.5,3.5,52,0.04,RA,,0.15,WeatherDisplay:10.37,2013-02-12 19:46:00,
2013-02-12 14:51:00,36.9,20.9,29.66,NW,316,2.3,2.3,52,0.04,OVC,,0.15,WeatherDisplay:10.37,2013-02-12 19:51:00,
2013-02-12 14:56:00,37.0,21.0,29.66,NW,316,1.1,1.1,52,0.03,OVC,,0.15,WeatherDisplay:10.37,2013-02-12 19:56:00,
2013-02-12 15:01:00,36.8,20.8,29.66,WNW,284,4.6,4.6,52,0.03,OVC,,0.15,WeatherDisplay:10.37,2013-02-12 20:01:00,
2013-02-12 15:06:00,36.8,20.8,29.66,WNW,284,3.5,3.5,52,0.04,RA,,0.16,WeatherDisplay:10.37,2013-02-12 20:06:00,
2013-02-12 15:11:00,36.7,22.9,29.68,WNW,287,4.0,4.0,57,0.04,OVC,,0.16,WeatherDisplay:10.37,2013-02-12 20:11:00,
2013-02-12 15:16:00,36.7,22.9,29.68,WNW,302,4.6,4.6,57,0.03,OVC,,0.16,WeatherDisplay:10.37,2013-02-12 20:16:00,
2013-02-12 15:21:00,36.6,22.8,29.68,NW,307,8.1,8.1,57,0.03,OVC,,0.16,WeatherDisplay:10.37,2013-02-12 20:21:00,
2013-02-12 15:26:00,36.4,22.6,29.68,NW,306,5.0,5.0,57,0.02,OVC,,0.16,WeatherDisplay:10.37,2013-02-12 20:26:00,
2013-02-12 15:31:00,36.4,22.6,29.68,NW,310,4.6,4.6,57,0.02,OVC,,0.16,WeatherDisplay:10.37,2013-02-12 20:31:00,
2013-02-12 15:36:00,36.4,22.6,29.68,WNW,295,5.0,5.0,57,0.03,OVC,,0.17,WeatherDisplay:10.37,2013-02-12 20:36:00,
2013-02-12 15:41:00,36.4,22.6,29.68,WNW,285,3.5,3.5,57,0.03,OVC,,0.17,WeatherDisplay:10.37,2013-02-12 20:41:00,
2013-02-12 15:46:00,36.1,22.3,29.68,NW,307,3.5,3.5,57,0.02,OVC,,0.17,WeatherDisplay:10.37,2013-02-12 20:46:00,
2013-02-12 15:51:00,36.1,22.3,29.68,West,271,5.8,5.8,57,0.02,OVC,,0.17,WeatherDisplay:10.37,2013-02-12 20:51:00,
2013-02-12 15:56:00,36.3,22.5,29.68,NW,310,4.0,4.0,57,0.03,RA,,0.18,WeatherDisplay:10.37,2013-02-12 20:56:00,
2013-02-12 16:01:00,36.2,22.4,29.68,NW,304,9.2,9.2,57,0.03,OVC,,0.18,WeatherDisplay:10.37,2013-02-12 21:01:00,
2013-02-12 16:06:00,36.2,22.4,29.68,WNW,282,8.1,8.1,57,0.02,OVC,,0.18,WeatherDisplay:10.37,2013-02-12 21:06:00,
2013-02-12 16:11:00,35.8,22.9,29.70,WNW,296,4.0,4.0,59,0.02,OVC,,0.18,WeatherDisplay:10.37,2013-02-12 21:11:00,
2013-02-12 16:16:00,35.9,23.0,29.70,WNW,290,5.8,5.8,59,0.02,OVC,,0.18,WeatherDisplay:10.37,2013-02-12 21:16:00,
2013-02-12 16:21:00,35.7,22.8,29.70,NW,307,3.5,3.5,59,0.02,OVC,,0.18,WeatherDisplay:10.37,2013-02-12 21:21:00,
2013-02-12 16:26:00,35.6,22.7,29.70,WNW,291,3.5,3.5,59,0.02,OVC,,0.18,WeatherDisplay:10.37,2013-02-12 21:26:00,
2013-02-12 16:31:00,35.6,22.7,29.70,WNW,291,1.1,0.0,59,0.02,OVC,,0.18,WeatherDisplay:10.37,2013-02-12 21:31:00,
2013-02-12 16:36:00,35.6,22.7,29.70,NW,306,3.5,3.5,59,0.01,OVC,,0.18,WeatherDisplay:10.37,2013-02-12 21:36:00,
2013-02-12 16:41:00,35.7,22.8,29.70,NW,306,3.5,3.5,59,0.02,RA,,0.19,WeatherDisplay:10.37,2013-02-12 21:41:00,
2013-02-12 16:46:00,35.2,22.3,29.70,NW,306,1.1,1.1,59,0.02,OVC,,0.19,WeatherDisplay:10.37,2013-02-12 21:46:00,
2013-02-12 16:51:00,35.4,22.5,29.70,West,266,3.5,3.5,59,0.02,OVC,,0.19,WeatherDisplay:10.37,2013-02-12 21:51:00,
2013-02-12 16:56:00,35.3,22.4,29.70,NW,315,3.5,3.5,59,0.01,OVC,,0.19,WeatherDisplay:10.37,2013-02-12 21:56:00,
2013-02-12 17:01:00,35.2,22.3,29.70,West,262,3.5,3.5,59,0.01,OVC,,0.19,WeatherDisplay:10.37,2013-02-12 22:01:00,
2013-02-12 17:06:00,35.3,22.4,29.70,WNW,300,3.5,3.5,59,0.01,OVC,,0.19,WeatherDisplay:10.37,2013-02-12 22:06:00,
2013-02-12 17:11:00,35.0,22.1,29.70,WNW,295,2.3,2.3,59,0.01,OVC,,0.19,WeatherDisplay:10.37,2013-02-12 22:11:00,
2013-02-12 17:16:00,34.9,22.0,29.70,West,271,3.5,3.5,59,0.01,OVC,,0.19,WeatherDisplay:10.37,2013-02-12 22:16:00,
2013-02-12 17:21:00,34.6,21.7,29.70,NW,315,2.3,2.3,59,0.01,OVC,,0.19,WeatherDisplay:10.37,2013-02-12 22:21:00,
2013-02-12 17:26:00,34.7,21.8,29.70,West,274,4.0,4.0,59,0.01,OVC,,0.19,WeatherDisplay:10.37,2013-02-12 22:26:00,
2013-02-12 17:31:00,34.7,21.8,29.70,WNW,302,3.5,3.5,59,0.02,RA,,0.20,WeatherDisplay:10.37,2013-02-12 22:31:00,
2013-02-12 17:36:00,34.4,21.5,29.70,WSW,251,2.3,2.3,59,0.02,OVC,,0.20,WeatherDisplay:10.37,2013-02-12 22:36:00,
2013-02-12 17:41:00,34.2,21.4,29.70,WSW,252,1.0,1.0,59,0.01,OVC,,0.20,WeatherDisplay:10.37,2013-02-12 22:41:00,
2013-02-12 17:46:00,34.5,21.6,29.70,NW,306,4.0,4.0,59,0.01,OVC,,0.20,WeatherDisplay:10.37,2013-02-12 22:46:00,
2013-02-12 17:51:00,34.4,21.5,29.70,NW,306,2.3,2.3,59,0.01,OVC,,0.20,WeatherDisplay:10.37,2013-02-12 22:51:00,
2013-02-12 17:56:00,34.4,21.5,29.70,West,263,3.5,3.5,59,0.01,OVC,,0.20,WeatherDisplay:10.37,2013-02-12 22:56:00,
2013-02-12 18:01:00,34.5,21.6,29.70,WNW,285,3.5,3.5,59,0.01,OVC,,0.20,WeatherDisplay:10.37,2013-02-12 23:01:00,
2013-02-12 18:06:00,34.5,21.6,29.70,West,279,3.5,3.5,59,0.01,OVC,,0.20,WeatherDisplay:10.37,2013-02-12 23:06:00,
2013-02-12 18:11:00,34.5,21.6,29.72,West,280,3.5,3.5,59,0.01,OVC,,0.20,WeatherDisplay:10.37,2013-02-12 23:11:00,
2013-02-12 18:16:00,34.5,21.6,29.72,NNW,333,3.5,3.5,59,0.01,OVC,,0.20,WeatherDisplay:10.37,2013-02-12 23:16:00,
2013-02-12 18:21:00,34.4,21.5,29.72,WNW,289,3.5,3.5,59,0.01,OVC,,0.20,WeatherDisplay:10.37,2013-02-12 23:21:00,
2013-02-12 18:26:00,34.3,21.4,29.72,WNW,286,4.6,4.6,59,0.01,OVC,,0.20,WeatherDisplay:10.37,2013-02-12 23:26:00,
2013-02-12 18:31:00,34.3,21.4,29.72,WNW,291,3.5,3.5,59,0.00,OVC,,0.20,WeatherDisplay:10.37,2013-02-12 23:31:00,
2013-02-12 18:36:00,34.3,21.4,29.72,WNW,287,5.8,5.8,59,0.00,OVC,,0.20,WeatherDisplay:10.37,2013-02-12 23:36:00,
2013-02-12 18:41:00,34.3,21.4,29.72,WNW,295,5.8,5.8,59,0.00,OVC,,0.20,WeatherDisplay:10.37,2013-02-12 23:41:00,
2013-02-12 18:46:00,34.2,21.4,29.72,NW,310,6.9,6.9,59,0.00,OVC,,0.20,WeatherDisplay:10.37,2013-02-12 23:46:00,
2013-02-12 18:51:00,34.1,21.3,29.72,NW,321,6.9,6.9,59,0.00,OVC,,0.20,WeatherDisplay:10.37,2013-02-12 23:51:00,
2013-02-12 18:56:00,34.0,21.2,29.72,WNW,288,3.5,3.5,59,0.00,OVC,,0.20,WeatherDisplay:10.37,2013-02-12 23:56:00,
2013-02-12 19:01:00,33.8,21.0,29.72,WNW,288,4.0,4.0,59,0.00,OVC,,0.20,WeatherDisplay:10.37,2013-02-13 00:01:00,
2013-02-12 19:06:00,34.0,21.2,29.72,NW,317,5.8,5.8,59,0.00,OVC,,0.20,WeatherDisplay:10.37,2013-02-13 00:06:00,
2013-02-12 19:11:00,33.8,22.9,29.73,NW,309,3.5,3.5,64,0.00,BKN,,0.20,WeatherDisplay:10.37,2013-02-13 00:11:00,
2013-02-12 19:16:00,33.7,22.8,29.73,WSW,246,4.6,4.6,64,0.00,BKN,,0.20,WeatherDisplay:10.37,2013-02-13 00:16:00,
2013-02-12 19:21:00,33.5,22.6,29.73,WNW,290,4.6,4.6,64,0.00,BKN,,0.20,WeatherDisplay:10.37,2013-02-13 00:21:00,
2013-02-12 19:26:00,33.5,22.6,29.73,WNW,285,5.8,5.8,64,0.00,BKN,,0.20,WeatherDisplay:10.37,2013-02-13 00:26:00,
2013-02-12 19:31:00,33.5,22.6,29.73,WNW,286,8.1,8.1,64,0.00,BKN,,0.20,WeatherDisplay:10.37,2013-02-13 00:31:00,
2013-02-12 19:36:00,33.2,22.3,29.73,WNW,291,3.5,3.5,64,0.00,BKN,,0.20,WeatherDisplay:10.37,2013-02-13 00:36:00,
2013-02-12 19:41:00,33.2,22.3,29.73,WNW,286,4.6,4.6,64,0.00,BKN,,0.20,WeatherDisplay:10.37,2013-02-13 00:41:00,
2013-02-12 19:46:00,33.1,22.2,29.73,WNW,286,4.6,4.6,64,0.00,BKN,,0.20,WeatherDisplay:10.37,2013-02-13 00:46:00,
2013-02-12 19:51:00,32.8,22.0,29.73,West,271,4.0,4.0,64,0.00,BKN,,0.20,WeatherDisplay:10.37,2013-02-13 00:51:00,
2013-02-12 19:56:00,32.9,22.0,29.73,WNW,285,4.6,4.6,64,0.00,BKN,,0.20,WeatherDisplay:10.37,2013-02-13 00:56:00,
2013-02-12 20:01:00,32.6,21.8,29.73,WNW,285,3.5,3.5,64,0.00,BKN,,0.20,WeatherDisplay:10.37,2013-02-13 01:01:00,
2013-02-12 20:06:00,33.0,22.1,29.73,WNW,284,6.9,6.9,64,0.00,BKN,,0.20,WeatherDisplay:10.37,2013-02-13 01:06:00,
2013-02-12 20:11:00,32.7,21.5,29.77,WNW,285,4.6,4.6,63,0.00,CLR,,0.20,WeatherDisplay:10.37,2013-02-13 01:11:00,
2013-02-12 20:16:00,32.7,21.5,29.77,West,273,3.5,3.5,63,0.00,CLR,,0.20,WeatherDisplay:10.37,2013-02-13 01:16:00,
2013-02-12 20:21:00,32.5,21.3,29.77,West,275,3.5,3.5,63,0.00,CLR,,0.20,WeatherDisplay:10.37,2013-02-13 01:21:00,
2013-02-12 20:26:00,32.7,21.5,29.77,WNW,297,3.5,3.5,63,0.00,CLR,,0.20,WeatherDisplay:10.37,2013-02-13 01:26:00,
2013-02-12 20:31:00,32.7,21.5,29.77,West,277,3.5,3.5,63,0.00,CLR,,0.20,WeatherDisplay:10.37,2013-02-13 01:31:00,
2013-02-12 20:36:00,32.6,21.4,29.77,West,276,4.6,4.6,63,0.00,CLR,,0.20,WeatherDisplay:10.37,2013-02-13 01:36:00,
2013-02-12 20:41:00,32.7,21.5,29.77,West,281,3.5,3.5,63,0.00,CLR,,0.20,WeatherDisplay:10.37,2013-02-13 01:41:00,
2013-02-12 20:46:00,32.5,21.3,29.77,SSW,196,3.5,3.5,63,0.00,CLR,,0.20,WeatherDisplay:10.37,2013-02-13 01:46:00,
2013-02-12 20:51:00,32.8,21.6,29.77,WNW,292,3.5,3.5,63,0.00,CLR,,0.20,WeatherDisplay:10.37,2013-02-13 01:51:00,
2013-02-12 20:56:00,32.6,21.4,29.77,West,268,3.5,3.5,63,0.00,CLR,,0.20,WeatherDisplay:10.37,2013-02-13 01:56:00,
2013-02-12 21:01:00,32.5,22.4,29.82,WSW,245,3.5,3.5,66,0.00,OVC,,0.20,WeatherDisplay:10.37,2013-02-13 02:01:00,
2013-02-12 21:06:00,32.8,22.7,29.82,WSW,254,3.5,3.5,66,0.00,OVC,,0.20,WeatherDisplay:10.37,2013-02-13 02:06:00,
2013-02-12 21:11:00,32.7,22.6,29.82,West,260,3.5,3.5,66,0.00,OVC,,0.20,WeatherDisplay:10.37,2013-02-13 02:11:00,
2013-02-12 21:16:00,32.7,22.6,29.82,WNW,284,3.5,3.5,66,0.00,OVC,,0.20,WeatherDisplay:10.37,2013-02-13 02:16:00,
2013-02-12 21:21:00,32.6,22.5,29.82,West,276,3.5,3.5,66,0.00,OVC,,0.20,WeatherDisplay:10.37,2013-02-13 02:21:00,
2013-02-12 21:26:00,32.7,22.6,29.82,West,276,2.3,2.3,66,0.00,OVC,,0.20,WeatherDisplay:10.37,2013-02-13 02:26:00,
2013-02-12 21:31:00,32.5,22.4,29.82,West,276,2.3,2.3,66,0.00,OVC,,0.20,WeatherDisplay:10.37,2013-02-13 02:31:00,
2013-02-12 21:36:00,32.7,22.6,29.82,NW,309,3.5,3.5,66,0.00,OVC,,0.20,WeatherDisplay:10.37,2013-02-13 02:36:00,
2013-02-12 21:41:00,32.6,22.5,29.82,NW,309,2.3,2.3,66,0.00,OVC,,0.20,WeatherDisplay:10.37,2013-02-13 02:41:00,
2013-02-12 21:46:00,32.6,22.5,29.82,NW,309,2.3,2.3,66,0.00,OVC,,0.20,WeatherDisplay:10.37,2013-02-13 02:46:00,
2013-02-12 21:51:00,32.5,22.4,29.82,NW,307,4.0,4.0,66,0.00,OVC,,0.20,WeatherDisplay:10.37,2013-02-13 02:51:00,
2013-02-12 21:56:00,32.5,22.4,29.82,NW,306,3.5,3.5,66,0.00,OVC,,0.20,WeatherDisplay:10.37,2013-02-13 02:56:00,
2013-02-12 22:01:00,32.4,21.2,29.81,WSW,246,3.0,3.0,63,0.00,OVC,,0.20,WeatherDisplay:10.37,2013-02-13 03:01:00,
2013-02-12 22:06:00,32.2,21.0,29.81,West,265,3.5,3.5,63,0.00,OVC,,0.20,WeatherDisplay:10.37,2013-02-13 03:06:00,
2013-02-12 22:11:00,32.3,21.1,29.81,West,264,2.3,2.3,63,0.00,OVC,,0.20,WeatherDisplay:10.37,2013-02-13 03:11:00,
2013-02-12 22:16:00,32.2,21.0,29.81,West,269,2.0,2.0,63,0.00,OVC,,0.20,WeatherDisplay:10.37,2013-02-13 03:16:00,
2013-02-12 22:21:00,32.0,20.8,29.81,West,280,2.3,2.3,63,0.00,OVC,,0.20,WeatherDisplay:10.37,2013-02-13 03:21:00,
2013-02-12 22:26:00,32.2,21.0,29.81,NNW,327,4.6,4.6,63,0.00,OVC,,0.20,WeatherDisplay:10.37,2013-02-13 03:26:00,
2013-02-12 22:31:00,31.9,20.7,29.81,NNW,327,2.3,2.3,63,0.00,OVC,,0.20,WeatherDisplay:10.37,2013-02-13 03:31:00,
2013-02-12 22:36:00,31.9,20.7,29.81,WNW,300,4.6,4.6,63,0.00,OVC,,0.20,WeatherDisplay:10.37,2013-02-13 03:36:00,
2013-02-12 22:41:00,31.7,20.5,29.81,WNW,290,5.0,5.0,63,0.00,OVC,,0.20,WeatherDisplay:10.37,2013-02-13 03:41:00,
2013-02-12 22:46:00,31.6,20.4,29.81,WNW,296,2.3,2.3,63,0.00,OVC,,0.20,WeatherDisplay:10.37,2013-02-13 03:46:00,
2013-02-12 22:51:00,31.4,20.2,29.81,NW,312,1.0,0.0,63,0.00,OVC,,0.20,WeatherDisplay:10.37,2013-02-13 03:51:00,
2013-02-12 22:56:00,31.4,20.2,29.81,NW,312,1.1,1.1,63,0.00,OVC,,0.20,WeatherDisplay:10.37,2013-02-13 03:56:00,
2013-02-12 23:01:00,31.3,22.3,29.80,NW,312,0.0,0.0,69,0.00,OVC,,0.20,WeatherDisplay:10.37,2013-02-13 04:01:00,
2013-02-12 23:06:00,31.4,22.4,29.80,North,0,1.1,0.0,69,0.00,OVC,,0.20,WeatherDisplay:10.37,2013-02-13 04:06:00,
2013-02-12 23:11:00,31.4,22.4,29.80,North,0,2.3,2.3,69,0.00,OVC,,0.20,WeatherDisplay:10.37,2013-02-13 04:11:00,
2013-02-12 23:16:00,31.5,22.5,29.80,North,0,2.3,2.3,69,0.00,OVC,,0.20,WeatherDisplay:10.37,2013-02-13 04:16:00,
2013-02-12 23:21:00,31.5,22.5,29.80,North,0,0.0,0.0,69,0.00,OVC,,0.20,WeatherDisplay:10.37,2013-02-13 04:21:00,
2013-02-12 23:26:00,31.4,22.4,29.80,North,0,1.1,1.1,69,0.00,OVC,,0.20,WeatherDisplay:10.37,2013-02-13 04:26:00,
2013-02-12 23:31:00,31.3,22.3,29.80,North,0,0.0,0.0,69,0.00,OVC,,0.20,WeatherDisplay:10.37,2013-02-13 04:31:00,
2013-02-12 23:36:00,31.3,22.3,29.80,NW,310,4.0,4.0,69,0.00,OVC,,0.20,WeatherDisplay:10.37,2013-02-13 04:36:00,
2013-02-12 23:41:00,31.3,22.3,29.80,WNW,287,2.3,2.3,69,0.00,OVC,,0.20,WeatherDisplay:10.37,2013-02-13 04:41:00,
2013-02-12 23:46:00,31.2,22.2,29.80,West,266,3.5,3.5,69,0.00,OVC,,0.20,WeatherDisplay:10.37,2013-02-13 04:46:00,
2013-02-12 23:51:00,31.2,22.2,29.80,West,267,1.0,0.0,69,0.00,OVC,,0.20,WeatherDisplay:10.37,2013-02-13 04:51:00,
2013-02-12 23:56:00,31.3,22.3,29.80,West,267,3.5,3.5,69,0.00,OVC,,0.20,WeatherDisplay:10.37,2013-02-13 04:56:00,